createdAt,value
2022-10-04T00:01:26.427Z,2.60
2022-10-04T00:04:07.819Z,1.83
2022-10-04T00:06:38.192Z,2.35
2022-10-04T00:09:13.182Z,2.55
2022-10-04T00:11:45.576Z,2.30
2022-10-04T00:14:20.861Z,1.83
2022-10-04T00:16:50.291Z,2.50
2022-10-04T00:19:40.869Z,2.30
2022-10-04T00:22:19.922Z,1.85
2022-10-04T00:25:18.572Z,2.17
2022-10-04T00:28:27.917Z,2.05
2022-10-04T00:31:18.519Z,2.00
2022-10-04T00:33:48.481Z,2.70
2022-10-04T00:36:45.913Z,2.42
2022-10-04T00:39:52.838Z,1.70
2022-10-04T00:42:38.661Z,2.30
2022-10-04T00:45:15.861Z,2.00
2022-10-04T00:48:04.355Z,2.25
2022-10-04T00:50:38.212Z,2.22
2022-10-04T00:53:20.093Z,2.10
2022-10-04T00:55:53.648Z,2.55
2022-10-04T00:58:26.392Z,2.17
2022-10-04T01:00:56.260Z,2.53
2022-10-04T01:03:31.533Z,2.57
2022-10-04T01:06:03.220Z,1.95
2022-10-04T01:08:35.778Z,2.03
2022-10-04T01:11:08.070Z,2.65
2022-10-04T01:13:40.705Z,3.00
2022-10-04T01:16:15.584Z,2.60
2022-10-04T01:18:44.034Z,2.15
2022-10-04T01:21:28.450Z,2.20
2022-10-04T01:26:48.657Z,2.00
2022-10-04T01:29:19.230Z,2.20
2022-10-04T01:31:48.692Z,2.30
2022-10-04T01:34:19.601Z,1.80
2022-10-04T01:36:48.950Z,2.35
2022-10-04T01:39:18.779Z,2.42
2022-10-04T01:41:54.070Z,2.10
2022-10-04T01:44:33.964Z,2.10
2022-10-04T01:47:06.232Z,1.77
2022-10-04T01:49:38.039Z,2.00
2022-10-04T01:52:10.769Z,2.67
2022-10-04T01:54:43.588Z,2.47
2022-10-04T01:57:18.356Z,3.17
2022-10-04T01:59:52.263Z,2.40
2022-10-04T02:02:25.025Z,2.25
2022-10-04T02:04:57.023Z,2.47
2022-10-04T02:07:29.917Z,2.03
2022-10-04T02:10:00.701Z,2.50
2022-10-04T02:12:32.499Z,2.42
2022-10-04T02:15:06.050Z,2.40
2022-10-04T02:17:39.493Z,2.15
2022-10-04T02:20:14.327Z,2.15
2022-10-04T02:22:43.373Z,1.70
2022-10-04T02:25:13.585Z,2.42
2022-10-04T02:27:43.211Z,1.98
2022-10-04T02:30:13.411Z,2.13
2022-10-04T02:32:57.721Z,1.80
2022-10-04T02:35:28.274Z,2.35
2022-10-04T02:38:06.797Z,1.70
2022-10-04T02:40:42.356Z,2.22
2022-10-04T02:43:16.096Z,2.65
2022-10-04T02:45:50.184Z,2.50
2022-10-04T02:48:34.837Z,2.55
2022-10-04T02:51:15.955Z,2.00
2022-10-04T02:53:51.821Z,2.13
2022-10-04T02:56:22.274Z,2.97
2022-10-04T02:58:52.579Z,2.25
2022-10-04T03:01:27.859Z,2.75
2022-10-04T03:03:57.896Z,2.67
2022-10-04T03:06:32.394Z,2.25
2022-10-04T03:09:03.945Z,2.35
2022-10-04T03:11:36.431Z,2.85
2022-10-04T03:14:10.620Z,2.17
2022-10-04T03:16:41.034Z,2.30
2022-10-04T03:19:10.414Z,2.53
2022-10-04T03:21:40.590Z,2.30
2022-10-04T03:24:11.543Z,2.38
2022-10-04T03:26:43.630Z,2.10
2022-10-04T03:29:15.193Z,2.50
2022-10-04T03:31:46.575Z,2.10
2022-10-04T03:34:16.858Z,2.13
2022-10-04T03:36:47.493Z,2.38
2022-10-04T03:39:21.873Z,2.67
2022-10-04T03:41:50.181Z,2.70
2022-10-04T03:44:21.033Z,2.53
2022-10-04T03:46:49.486Z,2.85
2022-10-04T03:49:24.978Z,2.58
2022-10-04T03:51:53.449Z,2.75
2022-10-04T03:54:27.930Z,2.45
2022-10-04T03:56:57.822Z,2.45
2022-10-04T03:59:29.225Z,2.58
2022-10-04T04:02:07.540Z,2.30
2022-10-04T04:04:44.160Z,2.40
2022-10-04T04:07:15.909Z,2.42
2022-10-04T04:09:46.920Z,2.30
2022-10-04T04:12:20.053Z,1.75
2022-10-04T04:14:52.760Z,2.65
2022-10-04T04:17:36.791Z,2.17
2022-10-04T04:20:08.258Z,2.08
2022-10-04T04:22:39.171Z,2.38
2022-10-04T04:25:14.010Z,2.03
2022-10-04T04:27:45.231Z,2.10
2022-10-04T04:30:18.799Z,2.10
2022-10-04T04:32:51.008Z,2.40
2022-10-04T04:35:25.024Z,2.42
2022-10-04T04:38:17.788Z,2.67
2022-10-04T04:40:46.879Z,2.10
2022-10-04T04:43:19.679Z,2.20
2022-10-04T04:46:08.527Z,1.92
2022-10-04T04:48:38.829Z,2.00
2022-10-04T04:51:07.182Z,1.95
2022-10-04T04:53:35.760Z,2.17
2022-10-04T04:56:10.534Z,2.45
2022-10-04T04:58:43.423Z,2.30
2022-10-04T05:01:22.434Z,2.58
2022-10-04T05:04:02.194Z,1.98
2022-10-04T05:06:31.503Z,1.90
2022-10-04T05:08:59.879Z,2.50
2022-10-04T05:11:31.019Z,2.38
2022-10-04T05:14:02.331Z,2.55
2022-10-04T05:16:38.670Z,2.10
2022-10-04T05:19:14.340Z,3.15
2022-10-04T05:21:45.034Z,2.47
2022-10-04T05:24:19.506Z,2.13
2022-10-04T05:26:52.110Z,2.47
2022-10-04T05:29:22.721Z,2.20
2022-10-04T05:31:59.522Z,2.28
2022-10-04T05:34:31.623Z,2.47
2022-10-04T05:37:20.704Z,2.47
2022-10-04T05:39:58.970Z,2.22
2022-10-04T05:42:36.913Z,2.10
2022-10-04T05:45:15.460Z,2.50
2022-10-04T05:47:46.349Z,2.03
2022-10-04T05:50:18.778Z,2.60
2022-10-04T05:52:49.997Z,2.40
2022-10-04T05:55:26.111Z,2.53
2022-10-04T05:58:21.242Z,2.30
2022-10-04T06:01:10.565Z,2.40
2022-10-04T06:04:05.746Z,2.75
2022-10-04T06:06:41.452Z,2.63
2022-10-04T06:09:20.122Z,3.33
2022-10-04T06:12:01.240Z,3.88
2022-10-04T06:14:54.971Z,3.10
2022-10-04T06:17:43.990Z,2.63
2022-10-04T06:20:36.601Z,2.55
2022-10-04T06:23:14.201Z,2.92
2022-10-04T06:25:48.601Z,2.95
2022-10-04T06:28:22.819Z,2.83
2022-10-04T06:31:15.414Z,3.08
2022-10-04T06:34:06.507Z,2.40
2022-10-04T06:37:06.086Z,2.70
2022-10-04T06:39:58.428Z,2.65
2022-10-04T06:42:44.612Z,2.55
2022-10-04T06:45:31.403Z,2.92
2022-10-04T06:48:17.452Z,2.67
2022-10-04T06:50:51.045Z,3.25
2022-10-04T06:53:27.637Z,2.80
2022-10-04T06:56:16.833Z,2.70
2022-10-04T06:59:23.689Z,3.17
2022-10-04T07:01:54.431Z,2.85
2022-10-04T07:04:45.040Z,3.05
2022-10-04T07:07:27.078Z,2.88
2022-10-04T07:10:04.396Z,2.83
2022-10-04T07:12:36.195Z,3.08
2022-10-04T07:15:10.916Z,2.95
2022-10-04T07:17:42.252Z,3.28
2022-10-04T07:20:22.323Z,3.58
2022-10-04T07:22:57.125Z,2.55
2022-10-04T07:25:31.677Z,3.15
2022-10-04T07:28:22.253Z,3.33
2022-10-04T07:30:59.310Z,3.20
2022-10-04T07:33:30.167Z,2.65
2022-10-04T07:36:07.007Z,2.50
2022-10-04T07:38:39.743Z,3.00
2022-10-04T07:41:18.200Z,2.90
2022-10-04T07:43:52.534Z,3.20
2022-10-04T07:46:29.541Z,3.42
2022-10-04T07:48:58.797Z,2.78
2022-10-04T07:51:34.143Z,2.80
2022-10-04T07:54:06.119Z,2.70
2022-10-04T07:56:42.421Z,3.38
2022-10-04T07:59:25.838Z,2.13
2022-10-04T08:02:03.816Z,2.80
2022-10-04T08:04:41.342Z,2.45
2022-10-04T08:07:18.478Z,2.40
2022-10-04T08:10:02.557Z,2.20
2022-10-04T08:12:44.843Z,2.10
2022-10-04T08:15:36.237Z,2.15
2022-10-04T08:18:15.855Z,2.25
2022-10-04T08:20:49.893Z,2.33
2022-10-04T08:23:53.470Z,2.20
2022-10-04T08:26:46.884Z,2.03
2022-10-04T08:29:44.184Z,2.03
2022-10-04T08:32:35.762Z,2.45
2022-10-04T08:35:29.293Z,2.15
2022-10-04T08:38:21.272Z,1.80
2022-10-04T08:41:18.539Z,2.03
2022-10-04T08:44:11.317Z,1.95
2022-10-04T08:47:11.493Z,1.80
2022-10-04T08:50:11.427Z,1.58
2022-10-04T08:53:22.722Z,1.73
2022-10-04T08:56:11.553Z,1.60
2022-10-04T08:59:11.665Z,1.52
2022-10-04T09:02:13.309Z,2.03
2022-10-04T09:04:57.545Z,1.38
2022-10-04T09:07:53.503Z,1.40
2022-10-04T09:10:39.281Z,1.40
2022-10-04T09:13:31.455Z,1.55
2022-10-04T09:16:07.640Z,1.70
2022-10-04T09:19:01.142Z,1.38
2022-10-04T09:21:51.142Z,1.40
2022-10-04T09:24:54.394Z,1.30
2022-10-04T09:27:57.021Z,1.33
2022-10-04T09:30:36.592Z,1.58
2022-10-04T09:33:27.007Z,1.27
2022-10-04T09:36:20.272Z,1.50
2022-10-04T09:39:29.475Z,1.42
2022-10-04T09:42:22.207Z,1.40
2022-10-04T09:45:23.256Z,1.48
2022-10-04T09:48:07.824Z,1.55
2022-10-04T09:51:07.929Z,1.50
2022-10-04T09:53:46.371Z,1.63
2022-10-04T09:56:34.856Z,1.63
2022-10-04T09:59:40.180Z,1.08
2022-10-04T10:02:48.253Z,1.30
2022-10-04T10:05:32.188Z,1.55
2022-10-04T10:08:14.276Z,1.40
2022-10-04T10:11:10.002Z,1.77
2022-10-04T10:14:10.514Z,1.40
2022-10-04T10:16:53.366Z,1.55
2022-10-04T10:19:50.607Z,1.65
2022-10-04T10:22:33.799Z,1.50
2022-10-04T10:25:20.749Z,1.73
2022-10-04T10:28:07.884Z,1.17
2022-10-04T10:30:52.961Z,1.73
2022-10-04T10:33:53.046Z,1.30
2022-10-04T10:36:34.664Z,1.40
2022-10-04T10:39:23.952Z,1.52
2022-10-04T10:42:12.246Z,1.20
2022-10-04T10:44:58.654Z,1.40
2022-10-04T10:47:41.359Z,1.10
2022-10-04T10:50:32.743Z,1.15
2022-10-04T10:53:45.227Z,1.63
2022-10-04T10:56:44.601Z,1.40
2022-10-04T10:59:52.631Z,1.30
2022-10-04T11:03:12.278Z,1.35
2022-10-04T11:06:25.222Z,1.42
2022-10-04T11:09:31.474Z,1.30
2022-10-04T11:12:48.635Z,1.30
2022-10-04T11:15:44.730Z,1.00
2022-10-04T11:18:55.133Z,1.10
2022-10-04T11:21:51.442Z,1.27
2022-10-04T11:24:57.129Z,1.55
2022-10-04T11:27:37.312Z,1.77
2022-10-04T11:30:16.858Z,1.25
2022-10-04T11:33:29.999Z,1.55
2022-10-04T11:36:19.348Z,1.30
2022-10-04T11:39:04.313Z,1.50
2022-10-04T11:41:47.657Z,1.83
2022-10-04T11:44:47.858Z,1.40
2022-10-04T11:47:29.852Z,1.40
2022-10-04T11:50:09.913Z,2.80
2022-10-04T11:53:07.634Z,1.35
2022-10-04T11:55:57.487Z,1.38
2022-10-04T11:58:34.629Z,1.92
2022-10-04T12:01:36.067Z,1.30
2022-10-04T12:04:23.469Z,2.33
2022-10-04T12:07:08.410Z,1.33
2022-10-04T12:09:45.521Z,1.92
2022-10-04T12:12:38.860Z,1.50
2022-10-04T12:15:39.230Z,1.40
2022-10-04T12:18:42.958Z,1.20
2022-10-04T12:21:40.194Z,1.58
2022-10-04T12:24:39.205Z,1.48
2022-10-04T12:27:43.224Z,1.30
2022-10-04T12:30:28.527Z,1.35
2022-10-04T12:33:10.739Z,1.20
2022-10-04T12:35:53.716Z,1.40
2022-10-04T12:38:57.142Z,1.65
2022-10-04T12:41:32.003Z,1.60
2022-10-04T12:44:10.968Z,1.20
2022-10-04T12:46:51.583Z,1.45
2022-10-04T12:49:29.908Z,1.52
2022-10-04T12:52:07.144Z,1.40
2022-10-04T12:54:39.869Z,1.55
2022-10-04T12:57:24.295Z,1.63
2022-10-04T12:59:57.661Z,1.88
2022-10-04T13:02:49.082Z,1.70
2022-10-04T13:05:24.793Z,1.55
2022-10-04T13:08:08.747Z,1.92
2022-10-04T13:10:52.722Z,1.85
2022-10-04T13:13:48.744Z,1.50
2022-10-04T13:19:23.546Z,1.38
2022-10-04T13:22:37.610Z,1.50
2022-10-04T13:25:22.311Z,1.17
2022-10-04T13:27:58.721Z,2.22
2022-10-04T13:30:31.234Z,1.35
2022-10-04T13:33:15.555Z,1.70
2022-10-04T13:35:55.835Z,1.27
2022-10-04T13:38:51.907Z,1.70
2022-10-04T13:41:34.029Z,1.25
2022-10-04T13:44:22.286Z,1.45
2022-10-04T13:47:06.389Z,1.13
2022-10-04T13:49:50.056Z,1.05
2022-10-04T13:52:47.201Z,1.30
2022-10-04T13:55:43.844Z,1.13
2022-10-04T13:58:27.315Z,1.30
2022-10-04T14:01:19.834Z,1.08
2022-10-04T14:04:03.494Z,1.30
2022-10-04T14:07:01.991Z,1.30
2022-10-04T14:10:02.344Z,0.80
2022-10-04T14:13:28.035Z,1.27
2022-10-04T14:16:17.505Z,1.30
2022-10-04T14:19:35.299Z,1.15
2022-10-04T14:22:37.629Z,1.00
2022-10-04T14:25:52.363Z,1.35
2022-10-04T14:28:58.907Z,1.20
2022-10-04T14:31:59.321Z,1.10
2022-10-04T14:34:57.214Z,1.30
2022-10-04T14:38:15.236Z,0.98
2022-10-04T14:41:12.243Z,1.10
2022-10-04T14:44:25.424Z,1.30
2022-10-04T14:47:06.479Z,1.10
2022-10-04T14:50:00.160Z,1.25
2022-10-04T14:52:39.028Z,1.40
2022-10-04T14:55:26.170Z,1.10
2022-10-04T14:58:13.767Z,1.20
2022-10-04T15:01:03.322Z,1.10
2022-10-04T15:03:40.644Z,1.83
2022-10-04T15:06:21.331Z,1.13
2022-10-04T15:09:10.618Z,0.90
2022-10-04T15:11:57.560Z,1.10
2022-10-04T15:14:43.091Z,1.20
2022-10-04T15:17:26.032Z,1.30
2022-10-04T15:20:06.358Z,1.25
2022-10-04T15:22:42.181Z,1.30
2022-10-04T15:25:38.295Z,1.40
2022-10-04T15:28:15.383Z,1.67
2022-10-04T15:31:00.335Z,1.13
2022-10-04T15:33:38.403Z,0.93
2022-10-04T15:36:48.243Z,1.02
2022-10-04T15:39:47.977Z,1.33
2022-10-04T15:42:24.800Z,1.83
2022-10-04T15:45:09.274Z,1.58
2022-10-04T15:48:02.509Z,1.40
2022-10-04T15:50:36.495Z,1.40
2022-10-04T15:53:19.809Z,1.17
2022-10-04T15:56:24.201Z,1.00
2022-10-04T15:59:13.545Z,1.20
2022-10-04T16:02:06.482Z,1.20
2022-10-04T16:04:46.563Z,0.98
2022-10-04T16:07:39.881Z,1.23
2022-10-04T16:10:18.155Z,1.20
2022-10-04T16:13:20.864Z,1.08
2022-10-04T16:16:36.051Z,1.08
2022-10-04T16:19:15.686Z,1.20
2022-10-04T16:21:53.769Z,1.20
2022-10-04T16:24:48.904Z,1.30
2022-10-04T16:27:59.304Z,1.30
2022-10-04T16:30:31.840Z,1.48
2022-10-04T16:33:13.288Z,1.20
2022-10-04T16:35:44.649Z,1.20
2022-10-04T16:38:28.803Z,1.15
2022-10-04T16:41:15.357Z,1.20
2022-10-04T16:43:54.361Z,1.20
2022-10-04T16:46:31.502Z,1.27
2022-10-04T16:49:02.420Z,1.75
2022-10-04T16:51:54.794Z,2.50
2022-10-04T16:54:49.657Z,1.88
2022-10-04T16:57:22.937Z,1.75
2022-10-04T16:59:55.292Z,1.75
2022-10-04T17:02:54.051Z,2.35
2022-10-04T17:05:44.717Z,1.80
2022-10-04T17:08:40.508Z,1.90
2022-10-04T17:11:28.188Z,1.90
2022-10-04T17:14:00.905Z,1.60
2022-10-04T17:16:37.349Z,1.85
2022-10-04T17:19:19.636Z,1.90
2022-10-04T17:21:58.744Z,2.10
2022-10-04T17:24:42.979Z,2.78
2022-10-04T17:27:27.326Z,1.48
2022-10-04T17:30:06.473Z,2.00
2022-10-04T17:32:41.880Z,1.70
2022-10-04T17:35:25.411Z,2.20
2022-10-04T17:38:00.737Z,2.00
2022-10-04T17:40:41.383Z,2.13
2022-10-04T17:43:21.790Z,1.92
2022-10-04T17:46:04.829Z,2.97
2022-10-04T17:48:57.382Z,2.33
2022-10-04T17:52:02.074Z,2.25
2022-10-04T17:54:52.612Z,2.55
2022-10-04T17:57:26.223Z,2.25
2022-10-04T18:00:06.795Z,2.40
2022-10-04T18:02:47.267Z,2.90
2022-10-04T18:05:22.262Z,2.03
2022-10-04T18:07:58.064Z,2.45
2022-10-04T18:10:33.267Z,2.10
2022-10-04T18:13:06.448Z,2.60
2022-10-04T18:15:40.548Z,2.13
2022-10-04T18:18:18.725Z,2.15
2022-10-04T18:21:05.326Z,1.70
2022-10-04T18:23:37.011Z,2.08
2022-10-04T18:26:12.254Z,2.17
2022-10-04T18:28:40.367Z,2.30
2022-10-04T18:31:24.081Z,2.25
2022-10-04T18:33:54.077Z,2.15
2022-10-04T18:36:27.474Z,2.35
2022-10-04T18:39:16.700Z,2.83
2022-10-04T18:41:55.251Z,2.50
2022-10-04T18:44:29.444Z,2.55
2022-10-04T18:47:01.088Z,2.28
2022-10-04T18:49:33.340Z,2.28
2022-10-04T18:52:15.426Z,2.53
2022-10-04T18:54:50.599Z,2.10
2022-10-04T18:57:29.874Z,2.67
2022-10-04T19:00:21.483Z,2.50
2022-10-04T19:03:01.791Z,2.60
2022-10-04T19:05:38.453Z,2.70
2022-10-04T19:08:20.040Z,2.38
2022-10-04T19:10:52.428Z,2.70
2022-10-04T19:13:33.924Z,2.55
2022-10-04T19:16:28.022Z,2.55
2022-10-04T19:19:22.380Z,2.38
2022-10-04T19:22:01.247Z,2.38
2022-10-04T19:24:53.537Z,3.13
2022-10-04T19:27:28.170Z,3.75
2022-10-04T19:30:15.171Z,3.47
2022-10-04T19:33:03.132Z,3.60
2022-10-04T19:35:46.262Z,3.50
2022-10-04T19:38:29.461Z,2.70
2022-10-04T19:41:08.517Z,3.00
2022-10-04T19:43:44.647Z,2.90
2022-10-04T19:46:28.105Z,3.10
2022-10-04T19:48:56.202Z,2.55
2022-10-04T19:51:34.329Z,2.78
2022-10-04T19:54:14.683Z,2.78
2022-10-04T19:56:48.161Z,2.53
2022-10-04T19:59:18.909Z,2.53
2022-10-04T20:01:47.182Z,3.00
2022-10-04T20:04:35.039Z,2.53
2022-10-04T20:07:11.624Z,2.88
2022-10-04T20:09:54.600Z,2.22
2022-10-04T20:12:37.488Z,2.20
2022-10-04T20:15:23.877Z,2.13
2022-10-04T20:17:56.386Z,2.00
2022-10-04T20:21:03.482Z,2.47
2022-10-04T20:23:56.644Z,2.75
2022-10-04T20:27:06.761Z,2.15
2022-10-04T20:30:06.767Z,2.00
2022-10-04T20:33:02.789Z,2.22
2022-10-04T20:36:00.037Z,2.47
2022-10-04T20:38:47.107Z,2.13
2022-10-04T20:42:14.025Z,2.65
2022-10-04T20:44:53.831Z,2.30
2022-10-04T20:47:40.252Z,1.92
2022-10-04T20:50:21.627Z,2.22
2022-10-04T20:52:53.552Z,2.10
2022-10-04T20:55:28.356Z,2.10
2022-10-04T20:58:01.934Z,2.05
2022-10-04T21:00:34.662Z,1.67
2022-10-04T21:03:17.011Z,2.03
2022-10-04T21:05:49.898Z,2.75
2022-10-04T21:08:25.546Z,3.08
2022-10-04T21:11:20.054Z,2.75
2022-10-04T21:13:56.538Z,2.17
2022-10-04T21:16:45.885Z,2.22
2022-10-04T21:19:50.746Z,2.13
2022-10-04T21:22:35.600Z,2.13
2022-10-04T21:25:20.307Z,2.50
2022-10-04T21:27:48.402Z,2.20
2022-10-04T21:30:20.091Z,2.55
2022-10-04T21:32:48.207Z,2.70
2022-10-04T21:35:16.337Z,2.50
2022-10-04T21:37:44.454Z,2.58
2022-10-04T21:40:14.876Z,2.40
2022-10-04T21:42:43.013Z,2.65
2022-10-04T21:45:11.742Z,2.22
2022-10-04T21:47:41.216Z,2.95
2022-10-04T21:50:10.144Z,3.22
2022-10-04T21:52:38.270Z,2.47
2022-10-04T21:55:10.541Z,2.45
2022-10-04T21:57:38.742Z,2.40
2022-10-04T22:00:08.118Z,3.40
2022-10-04T22:02:36.318Z,2.50
2022-10-04T22:05:06.288Z,2.50
2022-10-04T22:07:34.439Z,2.70
2022-10-04T22:10:02.650Z,2.15
2022-10-04T22:12:30.705Z,2.40
2022-10-04T22:14:58.796Z,2.65
2022-10-04T22:17:26.906Z,2.75
2022-10-04T22:19:54.931Z,3.08
2022-10-04T22:22:24.401Z,2.75
2022-10-04T22:24:52.501Z,2.80
2022-10-04T22:27:21.766Z,2.20
2022-10-04T22:29:50.175Z,2.63
2022-10-04T22:32:24.655Z,2.88
2022-10-04T22:34:53.370Z,3.63
2022-10-04T22:37:25.795Z,2.85
2022-10-04T22:39:54.516Z,2.50
2022-10-04T22:42:28.690Z,2.35
2022-10-04T22:44:56.810Z,2.85
2022-10-04T22:47:26.300Z,2.53
2022-10-04T22:49:57.561Z,2.80
2022-10-04T22:52:29.131Z,2.50
2022-10-04T22:55:02.697Z,2.38
2022-10-04T22:57:32.013Z,3.55
2022-10-04T23:00:00.080Z,2.70
2022-10-04T23:02:31.279Z,3.25
2022-10-04T23:05:10.615Z,2.70
2022-10-04T23:07:40.169Z,2.53
2022-10-04T23:10:09.436Z,2.58
2022-10-04T23:12:37.828Z,2.83
2022-10-04T23:15:07.604Z,2.65
2022-10-04T23:17:37.364Z,2.33
2022-10-04T23:20:13.587Z,2.35
2022-10-04T23:22:44.818Z,2.33
2022-10-04T23:25:18.065Z,3.08
2022-10-04T23:27:47.200Z,2.40
2022-10-04T23:30:18.258Z,1.98
2022-10-04T23:32:48.038Z,2.05
2022-10-04T23:35:19.694Z,2.38
2022-10-04T23:37:50.052Z,3.47
2022-10-04T23:40:21.440Z,2.00
2022-10-04T23:42:52.878Z,2.15
2022-10-04T23:45:23.110Z,2.78
2022-10-04T23:47:53.124Z,1.80
2022-10-04T23:50:25.076Z,2.40
2022-10-04T23:53:02.255Z,2.45
2022-10-04T23:55:33.760Z,2.38
2022-10-04T23:58:02.646Z,2.42
